Time;durP1;ratioP1;P1;durP2;ratioP2;P2;SDS_P1;SDS_P2;PMS_P1;PMS_P2;Temp;Humidity;BMP_temperature;BMP_pressure;BME280_temperature;BME280_humidity;BME280_pressure;Samples;Min_cycle;Max_cycle;Signal;HPM_P1;HPM_P2
2022/02/01 00:00:56;;;;;;;14.80;5.63;;;;;;;-2.24;100.00;98694.70;1729412;82;20974;-70
2022/02/01 00:03:17;;;;;;;12.23;5.13;;;;;;;-2.27;100.00;98684.84;1729095;83;21597;-69
2022/02/01 00:08:38;;;;;;;10.97;5.47;;;;;;;-2.31;100.00;98691.69;1711654;83;21496;-69
2022/02/01 00:37:38;;;;;;;14.40;6.05;;;;;;;-2.44;100.00;98670.28;1693782;84;21132;-69
2022/02/01 00:40:11;;;;;;;13.10;6.07;;;;;;;-2.44;100.00;98661.88;1712544;84;21085;-70
2022/02/01 00:42:35;;;;;;;16.37;5.93;;;;;;;-2.43;100.00;98669.33;1711987;84;21042;-69
2022/02/01 00:45:05;;;;;;;12.77;5.67;;;;;;;-2.44;100.00;98657.91;1715769;84;21030;-69
2022/02/01 00:47:32;;;;;;;18.90;6.40;;;;;;;-2.42;100.00;98656.47;1716087;84;21534;-69
2022/02/01 00:50:00;;;;;;;21.43;7.43;;;;;;;-2.40;100.00;98653.21;1716919;84;21025;-70
2022/02/01 00:52:30;;;;;;;19.33;6.90;;;;;;;-2.40;100.00;98643.95;1715823;84;21058;-70
2022/02/01 00:54:57;;;;;;;21.83;7.87;;;;;;;-2.37;100.00;98655.62;1691807;84;21018;-69
2022/02/01 00:57:24;;;;;;;18.93;7.80;;;;;;;-2.35;100.00;98662.47;1691992;84;21544;-69
2022/02/01 00:59:51;;;;;;;20.87;7.73;;;;;;;-2.33;100.00;98661.02;1715785;84;21045;-71
2022/02/01 01:02:18;;;;;;;22.60;8.93;;;;;;;-2.30;100.00;98658.13;1691844;84;21022;-69
2022/02/01 01:04:45;;;;;;;17.43;7.93;;;;;;;-2.29;100.00;98659.31;1715755;84;21030;-70
2022/02/01 01:07:12;;;;;;;21.80;8.93;;;;;;;-2.27;100.00;98662.33;1691918;84;21065;-70
2022/02/01 01:09:39;;;;;;;22.20;8.43;;;;;;;-2.26;100.00;98662.21;1715701;84;21025;-69
2022/02/01 01:12:09;;;;;;;24.53;9.13;;;;;;;-2.24;100.00;98664.73;1739583;82;21523;-70
2022/02/01 01:17:47;;;;;;;24.27;8.37;;;;;;;-2.22;100.00;98662.31;1748324;82;21066;-70
2022/02/01 01:53:17;;;;;;;19.93;8.20;;;;;;;-1.97;100.00;98688.97;1655262;87;21566;-70
2022/02/01 01:55:45;;;;;;;17.77;8.20;;;;;;;-1.96;100.00;98686.70;1654190;87;21582;-69
2022/02/01 01:58:13;;;;;;;19.60;8.50;;;;;;;-1.96;100.00;98684.53;1640230;87;21093;-70
2022/02/01 02:03:28;;;;;;;19.37;8.50;;;;;;;-2.00;100.00;98689.24;1640155;87;21097;-69
2022/02/01 02:05:55;;;;;;;19.77;8.17;;;;;;;-1.99;100.00;98696.70;1639476;87;21097;-69
2022/02/01 02:08:31;;;;;;;21.57;8.77;;;;;;;-1.99;100.00;98700.18;1640022;87;21575;-71
2022/02/01 02:11:04;;;;;;;22.23;8.60;;;;;;;-1.98;100.00;98695.25;1640305;87;21098;-70
2022/02/01 02:15:58;;;;;;;21.50;8.83;;;;;;;-2.01;100.00;98694.17;1596160;89;21151;-69
2022/02/01 02:18:26;;;;;;;21.10;8.60;;;;;;;-2.00;100.00;98693.67;1622301;87;21072;-70
2022/02/01 02:20:54;;;;;;;18.10;7.53;;;;;;;-1.96;100.00;98697.78;1590259;89;21547;-70
2022/02/01 02:23:21;;;;;;;17.47;7.33;;;;;;;-1.97;100.00;98695.59;1636333;88;21053;-69
2022/02/01 02:25:49;;;;;;;17.23;7.47;;;;;;;-1.96;100.00;98699.94;1590238;89;21161;-70
2022/02/01 02:28:16;;;;;;;17.63;8.07;;;;;;;-1.97;100.00;98708.84;1637142;88;21106;-70
2022/02/01 02:30:46;;;;;;;20.13;7.63;;;;;;;-1.99;100.00;98706.80;1590597;89;21086;-70
2022/02/01 02:33:15;;;;;;;20.00;8.60;;;;;;;-1.98;100.00;98713.80;1636286;88;21560;-69
2022/02/01 02:36:04;;;;;;;14.53;6.43;;;;;;;-2.00;100.00;98715.73;1611063;89;21116;-70
2022/02/01 02:38:44;;;;;;;19.30;7.10;;;;;;;-1.97;100.00;98718.61;1615035;88;21075;-69
2022/02/01 02:46:39;;;;;;;15.93;6.60;;;;;;;-2.04;100.00;98717.42;1676256;86;21105;-70
2022/02/01 02:49:11;;;;;;;13.23;5.60;;;;;;;-2.05;100.00;98715.27;1675868;86;21099;-69
2022/02/01 02:51:39;;;;;;;13.00;5.57;;;;;;;-2.04;100.00;98725.36;1666763;86;21042;-69
2022/02/01 02:54:07;;;;;;;14.27;5.40;;;;;;;-2.05;100.00;98723.20;1658012;82;21621;-70
2022/02/01 02:56:34;;;;;;;9.87;4.37;;;;;;;-2.06;100.00;98726.81;1731181;83;21077;-69
2022/02/01 02:59:01;;;;;;;16.13;5.40;;;;;;;-2.06;100.00;98727.30;1729359;83;21069;-68
2022/02/01 03:01:28;;;;;;;14.50;5.07;;;;;;;-2.07;100.00;98721.17;1728921;83;21105;-68
2022/02/01 03:03:56;;;;;;;15.47;5.20;;;;;;;-2.07;100.00;98725.14;1729244;83;21046;-69
2022/02/01 03:06:23;;;;;;;14.17;5.43;;;;;;;-2.08;100.00;98727.42;1731245;83;21041;-69
2022/02/01 03:08:49;;;;;;;14.33;5.70;;;;;;;-2.08;100.00;98729.23;1728757;83;21018;-69
2022/02/01 03:11:17;;;;;;;15.83;5.20;;;;;;;-2.08;100.00;98740.66;1730067;82;21069;-69
2022/02/01 03:21:35;;;;;;;15.00;5.70;;;;;;;-2.07;100.00;98733.55;1663536;85;21079;-69
2022/02/01 03:24:04;;;;;;;12.33;5.43;;;;;;;-2.08;100.00;98739.34;1686269;85;21137;-69
2022/02/01 03:26:31;;;;;;;15.57;6.17;;;;;;;-2.08;100.00;98745.95;1686713;85;21526;-69
2022/02/01 03:28:58;;;;;;;11.87;5.90;;;;;;;-2.09;100.00;98742.94;1686554;84;21081;-69
2022/02/01 03:31:26;;;;;;;14.23;5.70;;;;;;;-2.07;100.00;98736.20;1686689;85;21088;-68
2022/02/01 03:33:53;;;;;;;15.77;6.07;;;;;;;-2.05;100.00;98734.27;1686744;85;21110;-70
2022/02/01 03:36:20;;;;;;;12.77;6.00;;;;;;;-2.07;100.00;98743.69;1679821;85;21093;-70
2022/02/01 03:38:47;;;;;;;13.27;6.17;;;;;;;-2.06;100.00;98748.48;1669674;85;21534;-69
2022/02/01 03:41:14;;;;;;;13.03;5.90;;;;;;;-2.07;100.00;98752.95;1725028;82;21069;-67
2022/02/01 03:43:41;;;;;;;15.60;6.10;;;;;;;-2.05;100.00;98758.97;1726532;83;21478;-69
2022/02/01 03:46:09;;;;;;;13.87;5.80;;;;;;;-2.05;100.00;98753.67;1702193;83;20998;-69
2022/02/01 03:48:36;;;;;;;15.27;6.43;;;;;;;-2.03;100.00;98758.84;1726355;83;21057;-69
2022/02/01 03:51:03;;;;;;;16.43;6.57;;;;;;;-2.01;100.00;98754.27;1702162;83;21044;-70
2022/02/01 03:53:30;;;;;;;15.67;6.80;;;;;;;-1.99;100.00;98755.81;1726550;83;21026;-70
2022/02/01 03:55:57;;;;;;;15.60;6.67;;;;;;;-1.99;100.00;98763.76;1702525;83;21034;-69
2022/02/01 03:58:24;;;;;;;14.47;5.97;;;;;;;-1.97;100.00;98763.15;1726210;83;21065;-70
2022/02/01 04:00:51;;;;;;;12.60;5.87;;;;;;;-1.94;100.00;98759.43;1702267;83;21030;-69
2022/02/01 04:03:18;;;;;;;15.17;6.00;;;;;;;-1.95;100.00;98760.38;1702236;83;21001;-69
2022/02/01 04:05:45;;;;;;;18.53;6.77;;;;;;;-1.96;100.00;98761.36;1702328;83;21438;-70
2022/02/01 04:08:15;;;;;;;16.03;6.70;;;;;;;-1.95;100.00;98766.55;1665320;83;21017;-68
2022/02/01 04:10:43;;;;;;;12.93;5.97;;;;;;;-1.94;100.00;98766.89;1727351;83;21033;-69
2022/02/01 04:13:10;;;;;;;13.17;5.73;;;;;;;-1.95;100.00;98759.92;1762543;80;20985;-70
2022/02/01 04:15:37;;;;;;;12.10;5.87;;;;;;;-1.95;100.00;98762.58;1756071;79;21022;-70
2022/02/01 04:18:05;;;;;;;15.40;6.33;;;;;;;-1.94;100.00;98766.89;1756341;81;21040;-69
2022/02/01 04:20:32;;;;;;;15.17;6.43;;;;;;;-1.92;100.00;98762.30;1750768;82;21069;-69
2022/02/01 04:22:59;;;;;;;16.60;6.37;;;;;;;-1.88;100.00;98775.31;1750972;82;21038;-70
2022/02/01 04:25:26;;;;;;;15.83;6.30;;;;;;;-1.87;100.00;98770.39;1745172;81;21001;-70
2022/02/01 04:27:53;;;;;;;19.10;6.80;;;;;;;-1.87;100.00;98779.17;1751156;82;21021;-69
2022/02/01 04:30:21;;;;;;;20.90;6.87;;;;;;;-1.88;100.00;98789.88;1745012;82;21124;-70
2022/02/01 04:32:51;;;;;;;22.00;8.70;;;;;;;-1.86;100.00;98786.16;1744952;82;20987;-69
2022/02/01 04:35:22;;;;;;;18.40;8.00;;;;;;;-1.84;100.00;98791.31;1751144;82;21005;-69
2022/02/01 04:37:53;;;;;;;14.30;6.57;;;;;;;-1.83;100.00;98805.77;1714112;83;21021;-70
2022/02/01 04:40:18;;;;;;;16.30;7.13;;;;;;;-1.81;100.00;98804.33;1708452;83;21013;-71
2022/02/01 04:42:47;;;;;;;16.47;7.33;;;;;;;-1.82;100.00;98798.69;1707910;84;21558;-69
2022/02/01 04:45:20;;;;;;;16.37;7.10;;;;;;;-1.80;100.00;98803.38;1708162;84;21072;-69
2022/02/01 04:47:47;;;;;;;;;;;;;;;-1.79;100.00;98808.56;1692611;84;21545;-69
2022/02/01 04:50:23;;;;;;;18.87;8.53;;;;;;;-1.78;100.00;98814.69;1708475;84;20108;-69
2022/02/01 04:52:53;;;;;;;21.13;8.47;;;;;;;-1.77;100.00;98822.98;1630477;86;21111;-71
2022/02/01 04:55:20;;;;;;;15.40;6.70;;;;;;;-1.76;100.00;98819.37;1588183;88;21012;-69
2022/02/01 05:00:18;;;;;;;28.87;13.20;;;;;;;-1.76;100.00;98822.03;1568990;91;21236;-69
2022/02/01 05:02:47;;;;;;;19.73;8.40;;;;;;;-1.76;100.00;98824.68;1568438;90;21153;-68
2022/02/01 05:05:14;;;;;;;22.43;8.50;;;;;;;-1.75;100.00;98820.59;1528432;91;21096;-68
2022/02/01 05:07:42;;;;;;;13.87;7.13;;;;;;;-1.72;100.00;98821.67;1568525;91;21102;-70
2022/02/01 05:10:09;;;;;;;19.23;7.83;;;;;;;-1.71;100.00;98822.51;1569192;91;21142;-69
2022/02/01 05:12:38;;;;;;;16.73;7.30;;;;;;;-1.72;100.00;98820.81;1550832;91;21070;-68
2022/02/01 05:15:07;;;;;;;17.53;7.47;;;;;;;-1.71;100.00;98825.16;1540469;93;21090;-69
2022/02/01 05:17:38;;;;;;;17.70;7.40;;;;;;;-1.72;100.00;98832.73;1540451;91;21088;-70
2022/02/01 05:22:41;;;;;;;16.30;7.63;;;;;;;-1.68;100.00;98855.86;1515028;95;21147;-70
2022/02/01 05:25:08;;;;;;;19.57;8.23;;;;;;;-1.66;100.00;98859.26;1514785;95;21225;-69
2022/02/01 05:27:38;;;;;;;16.50;7.33;;;;;;;-1.65;100.00;98863.08;1507063;95;21203;-71
2022/02/01 05:30:06;;;;;;;16.73;7.53;;;;;;;-1.63;100.00;98865.16;1514788;95;21138;-71
2022/02/01 05:32:35;;;;;;;22.77;11.90;;;;;;;-1.65;100.00;98861.76;1514411;95;21165;-70
2022/02/01 05:35:02;;;;;;;22.50;10.50;;;;;;;-1.65;100.00;98871.53;1514705;95;21191;-70
2022/02/01 05:37:29;;;;;;;22.43;10.23;;;;;;;-1.67;100.00;98884.90;1498805;95;21072;-70
2022/02/01 05:39:58;;;;;;;21.53;10.73;;;;;;;-1.68;100.00;98892.97;1509380;95;21141;-71
2022/02/01 05:42:36;;;;;;;19.33;8.70;;;;;;;-1.71;100.00;98888.77;1509492;95;21130;-70
2022/02/01 05:44:54;;;;;;;20.33;9.40;;;;;;;-1.73;100.00;98890.20;1524112;92;21128;-68
2022/02/01 05:47:21;;;;;;;25.10;12.93;;;;;;;-1.77;100.00;98904.68;1542854;92;21085;-69
2022/02/01 05:49:48;;;;;;;27.50;12.10;;;;;;;-1.80;100.00;98906.23;1594684;86;21038;-70
2022/02/01 05:52:15;;;;;;;25.37;11.27;;;;;;;-1.80;100.00;98912.02;1688377;84;21028;-69
2022/02/01 05:54:43;;;;;;;25.47;12.20;;;;;;;-1.79;100.00;98919.86;1687649;85;20993;-69
2022/02/01 05:57:10;;;;;;;28.00;15.80;;;;;;;-1.79;100.00;98924.30;1630262;86;21113;-68
2022/02/01 05:59:39;;;;;;;22.60;10.43;;;;;;;-1.77;100.00;98923.69;1656233;87;21006;-68
2022/02/01 06:02:06;;;;;;;21.53;9.17;;;;;;;-1.76;100.00;98912.97;1655827;87;21030;-70
2022/02/01 06:04:34;;;;;;;18.03;8.60;;;;;;;-1.73;100.00;98917.20;1687352;84;21004;-69
2022/02/01 06:07:01;;;;;;;18.47;9.63;;;;;;;-1.72;100.00;98915.77;1687599;85;21021;-71
2022/02/01 06:09:29;;;;;;;17.87;8.90;;;;;;;-1.68;100.00;98905.77;1687499;85;21489;-71
2022/02/01 06:11:57;;;;;;;19.47;8.90;;;;;;;-1.64;100.00;98901.89;1700522;83;20982;-70
2022/02/01 06:14:26;;;;;;;19.93;9.23;;;;;;;-1.60;100.00;98910.45;1726978;83;20978;-69
2022/02/01 06:16:53;;;;;;;21.17;10.23;;;;;;;-1.59;100.00;98917.45;1727344;83;21017;-70
2022/02/01 06:19:23;;;;;;;23.23;10.93;;;;;;;-1.58;100.00;98919.95;1747731;80;20987;-70
2022/02/01 06:21:50;;;;;;;23.23;11.27;;;;;;;-1.56;100.00;98923.81;1786729;80;21052;-69
2022/02/01 06:24:21;;;;;;;15.97;8.50;;;;;;;-1.55;100.00;98919.72;1786908;80;21034;-71
2022/02/01 06:26:48;;;;;;;18.17;9.57;;;;;;;-1.56;100.00;98920.70;1793191;79;20981;-72
2022/02/01 06:29:15;;;;;;;22.43;9.70;;;;;;;-1.54;100.00;98935.13;1769363;79;21040;-70
2022/02/01 06:31:44;;;;;;;21.90;9.10;;;;;;;-1.52;100.00;98925.27;1791313;79;20953;-71
2022/02/01 06:34:11;;;;;;;19.53;8.80;;;;;;;-1.49;100.00;98919.70;1771694;80;20953;-71
2022/02/01 06:36:40;;;;;;;18.67;8.90;;;;;;;-1.47;100.00;98919.59;1785461;78;20977;-70
2022/02/01 06:39:09;;;;;;;20.30;8.67;;;;;;;-1.41;100.00;98914.64;1782979;79;21055;-71
2022/02/01 06:41:38;;;;;;;20.70;8.97;;;;;;;-1.37;100.00;98908.12;1795616;79;21169;-71
2022/02/01 06:44:06;;;;;;;19.50;9.20;;;;;;;-1.31;100.00;98905.95;1763714;79;21041;-71
2022/02/01 06:46:34;;;;;;;17.23;8.27;;;;;;;-1.22;100.00;98913.16;1794825;79;21493;-69
2022/02/01 06:49:01;;;;;;;18.93;9.67;;;;;;;-1.15;100.00;98912.55;1770140;79;21033;-69
2022/02/01 06:51:32;;;;;;;17.43;8.80;;;;;;;-1.10;100.00;98910.84;1797427;79;21008;-71
2022/02/01 06:54:01;;;;;;;18.23;9.50;;;;;;;-1.05;100.00;98913.96;1758055;81;21082;-71
2022/02/01 06:56:28;;;;;;;19.43;10.63;;;;;;;-0.99;100.00;98903.36;1698814;84;20985;-69
2022/02/01 06:59:02;;;;;;;19.70;9.10;;;;;;;-0.92;100.00;98901.89;1700977;83;21062;-70
2022/02/01 07:01:29;;;;;;;18.60;9.20;;;;;;;-0.85;100.00;98903.06;1622188;86;21094;-71
2022/02/01 07:03:56;;;;;;;20.30;8.90;;;;;;;-0.80;100.00;98900.02;1699423;84;21005;-71
2022/02/01 07:06:24;;;;;;;26.87;13.40;;;;;;;-0.79;100.00;98891.09;1701311;84;21047;-71
2022/02/01 07:08:52;;;;;;;21.07;9.90;;;;;;;-0.75;100.00;98904.46;1628455;87;21048;-71
2022/02/01 07:11:22;;;;;;;26.93;12.13;;;;;;;-0.75;100.00;98907.11;1630842;87;21053;-70
2022/02/01 07:13:50;;;;;;;25.07;11.03;;;;;;;-0.72;100.00;98912.17;1623556;87;21021;-70
2022/02/01 07:16:23;;;;;;;19.10;8.87;;;;;;;-0.71;100.00;98915.17;1574248;90;21148;-71
2022/02/01 07:18:51;;;;;;;18.27;8.33;;;;;;;-0.70;100.00;98919.53;1565842;91;21091;-70
2022/02/01 07:21:18;;;;;;;35.40;17.53;;;;;;;-0.69;100.00;98914.59;1567902;89;21093;-71
2022/02/01 07:23:46;;;;;;;31.50;16.30;;;;;;;-0.70;100.00;98926.16;1566263;91;21093;-70
2022/02/01 07:26:13;;;;;;;35.40;18.47;;;;;;;-0.73;100.00;98926.41;1568424;91;21110;-70
2022/02/01 07:28:40;;;;;;;33.03;16.67;;;;;;;-0.74;100.00;98928.72;1624740;87;21615;-70
2022/02/01 07:31:09;;;;;;;59.40;37.13;;;;;;;-0.70;100.00;98932.80;1628057;87;21027;-72
2022/02/01 07:33:37;;;;;;;23.53;12.37;;;;;;;-0.66;100.00;98928.08;1635054;86;21074;-70
2022/02/01 07:36:05;;;;;;;21.53;10.87;;;;;;;-0.61;100.00;98932.03;1627652;87;21491;-71
2022/02/01 07:38:35;;;;;;;18.33;8.97;;;;;;;-0.49;100.00;98939.97;1610100;89;21661;-71
2022/02/01 07:41:03;;;;;;;16.83;8.17;;;;;;;-0.43;100.00;98932.31;1652437;86;20992;-70
2022/02/01 07:43:32;;;;;;;45.43;25.10;;;;;;;-0.40;100.00;98938.70;1635869;86;21546;-70
2022/02/01 07:46:04;;;;;;;23.10;10.93;;;;;;;-0.28;100.00;98953.27;1637019;86;21080;-71
2022/02/01 07:48:30;;;;;;;28.97;15.43;;;;;;;-0.11;100.00;98957.16;1654162;86;21095;-70
2022/02/01 07:50:57;;;;;;;35.10;18.30;;;;;;;0.04;100.00;98955.86;1662467;84;21067;-70
2022/02/01 07:53:24;;;;;;;32.13;18.30;;;;;;;0.14;100.00;98961.22;1655051;86;21505;-71
2022/02/01 07:55:51;;;;;;;30.87;17.60;;;;;;;0.26;100.00;98966.81;1655274;86;21222;-70
2022/02/01 07:58:24;;;;;;;28.93;18.47;;;;;;;0.32;100.00;98975.61;1675057;83;21089;-71
2022/02/01 08:00:51;;;;;;;25.20;14.67;;;;;;;0.35;100.00;98983.34;1705385;82;21537;-71
2022/02/01 08:03:18;;;;;;;28.07;15.53;;;;;;;0.43;100.00;98989.81;1700282;83;20986;-70
2022/02/01 08:05:45;;;;;;;20.40;11.17;;;;;;;0.47;100.00;98988.56;1700987;83;21025;-71
2022/02/01 08:08:13;;;;;;;23.17;12.47;;;;;;;0.49;100.00;98998.58;1679567;83;21589;-71
2022/02/01 08:10:49;;;;;;;31.47;17.33;;;;;;;0.46;100.00;99009.01;1673483;83;21029;-69
2022/02/01 08:21:22;;;;;;;23.47;11.67;;;;;;;0.57;100.00;99042.66;1742686;82;21047;-70
2022/02/01 08:23:41;;;;;;;23.07;12.30;;;;;;;0.59;100.00;99056.67;1752732;82;21022;-70
2022/02/01 08:26:11;;;;;;;22.47;12.10;;;;;;;0.59;100.00;99060.66;1751403;82;21033;-70
2022/02/01 08:28:40;;;;;;;32.77;18.07;;;;;;;0.56;100.00;99075.05;1649197;85;21088;-69
2022/02/01 08:31:09;;;;;;;30.97;16.33;;;;;;;0.51;100.00;99084.41;1622772;87;21057;-70
2022/02/01 08:33:42;;;;;;;24.73;12.00;;;;;;;0.51;100.00;99091.05;1645187;86;21017;-70
2022/02/01 08:36:16;;;;;;;27.15;12.82;;;;;;;0.53;100.00;99096.61;1623820;87;20997;-68
2022/02/01 08:38:43;;;;;;;18.97;8.93;;;;;;;0.56;100.00;99102.15;1645735;87;21068;-69
2022/02/01 08:41:12;;;;;;;29.60;15.23;;;;;;;0.58;100.00;99102.86;1645359;87;21044;-70
2022/02/01 08:43:41;;;;;;;30.77;18.37;;;;;;;0.62;100.00;99102.11;1645209;87;21039;-70
2022/02/01 08:46:09;;;;;;;24.17;14.03;;;;;;;0.71;100.00;99108.00;1641717;87;21079;-71
2022/02/01 08:48:38;;;;;;;21.43;12.07;;;;;;;0.77;100.00;99103.47;1645357;86;21485;-70
2022/02/01 08:51:10;;;;;;;18.30;9.43;;;;;;;0.84;100.00;99107.78;1636123;85;21073;-70
2022/02/01 08:53:46;;;;;;;42.50;21.77;;;;;;;0.90;100.00;99101.45;1645270;87;21497;-69
2022/02/01 08:56:06;;;;;;;25.10;13.50;;;;;;;0.92;100.00;99105.28;1680907;84;20964;-70
2022/02/01 08:58:37;;;;;;;26.60;16.97;;;;;;;1.01;100.00;99100.52;1668838;84;21549;-70
2022/02/01 09:01:05;;;;;;;40.47;30.70;;;;;;;1.10;100.00;99106.88;1704187;84;21032;-70
2022/02/01 09:03:32;;;;;;;32.90;19.47;;;;;;;1.05;100.00;99117.91;1702163;83;21064;-69
2022/02/01 09:06:01;;;;;;;21.97;11.03;;;;;;;1.01;100.00;99127.61;1680971;84;20993;-70
2022/02/01 09:08:33;;;;;;;22.37;12.73;;;;;;;1.00;100.00;99129.94;1694051;83;21565;-69
2022/02/01 09:11:00;;;;;;;26.20;13.53;;;;;;;1.00;100.00;99126.77;1704453;83;21056;-70
2022/02/01 09:13:28;;;;;;;22.63;12.80;;;;;;;1.08;100.00;99126.97;1659423;86;21058;-69
2022/02/01 09:15:59;;;;;;;20.63;11.13;;;;;;;1.21;100.00;99124.57;1633385;87;21046;-69
2022/02/01 09:18:27;;;;;;;20.00;10.20;;;;;;;1.25;100.00;99135.30;1672319;80;20995;-69
2022/02/01 09:20:55;;;;;;;26.57;14.27;;;;;;;1.33;100.00;99142.98;1728466;82;21494;-70
2022/02/01 09:23:22;;;;;;;41.33;24.17;;;;;;;1.34;100.00;99150.47;1665989;83;21062;-69
2022/02/01 09:25:49;;;;;;;50.03;26.80;;;;;;;1.35;100.00;99160.16;1719574;83;21036;-71
2022/02/01 09:28:18;;;;;;;37.70;17.23;;;;;;;1.43;100.00;99153.66;1765328;81;21074;-70
2022/02/01 09:30:52;;;;;;;25.10;12.37;;;;;;;1.49;100.00;99158.46;1758713;81;21075;-70
2022/02/01 09:33:19;;;;;;;19.53;9.33;;;;;;;1.60;100.00;99164.18;1711903;83;21444;-70
2022/02/01 09:35:47;;;;;;;17.07;7.40;;;;;;;1.77;100.00;99173.83;1759088;81;21058;-69
2022/02/01 09:38:15;;;;;;;29.87;18.00;;;;;;;1.84;100.00;99178.97;1737890;81;21078;-72
2022/02/01 09:40:42;;;;;;;17.13;9.03;;;;;;;1.82;100.00;99182.27;1763857;80;21046;-70
2022/02/01 09:43:09;;;;;;;20.77;8.87;;;;;;;1.85;100.00;99186.83;1765686;80;21007;-71
2022/02/01 09:45:37;;;;;;;30.37;14.40;;;;;;;1.88;100.00;99178.56;1765102;81;21026;-70
2022/02/01 09:48:05;;;;;;;44.07;19.40;;;;;;;1.97;100.00;99176.07;1746046;82;21010;-70
2022/02/01 09:50:33;;;;;;;31.27;14.73;;;;;;;2.04;100.00;99169.20;1753264;80;21061;-70
2022/02/01 09:53:01;;;;;;;38.00;17.33;;;;;;;2.07;100.00;99168.91;1720978;82;21033;-71
2022/02/01 09:55:32;;;;;;;32.00;21.03;;;;;;;2.13;100.00;99158.20;1729817;80;21033;-70
2022/02/01 09:58:02;;;;;;;30.67;14.77;;;;;;;2.15;100.00;99160.23;1784713;80;21041;-70
2022/02/01 10:00:35;;;;;;;31.37;13.27;;;;;;;2.15;100.00;99157.07;1779218;80;21016;-71
2022/02/01 10:03:04;;;;;;;40.07;16.53;;;;;;;2.20;100.00;99157.50;1781543;80;21134;-69
2022/02/01 10:05:32;;;;;;;55.83;22.90;;;;;;;2.32;100.00;99157.35;1782157;80;20994;-70
2022/02/01 10:07:59;;;;;;;33.93;15.37;;;;;;;2.56;100.00;99154.27;1763455;80;21490;-70
2022/02/01 10:10:30;;;;;;;50.47;23.07;;;;;;;2.76;100.00;99144.41;1778222;80;21041;-70
2022/02/01 10:13:15;;;;;;;52.83;26.47;;;;;;;2.83;100.00;99145.05;1757785;80;21017;-70
2022/02/01 10:15:59;;;;;;;29.90;14.57;;;;;;;3.04;100.00;99141.33;1778403;80;21017;-69
2022/02/01 10:18:32;;;;;;;29.17;16.03;;;;;;;3.25;100.00;99146.97;1727704;82;21019;-71
2022/02/01 10:21:13;;;;;;;17.80;9.87;;;;;;;3.23;100.00;99153.28;1711087;83;21766;-72
2022/02/01 10:23:42;;;;;;;19.10;9.33;;;;;;;3.15;100.00;99157.20;1705700;83;21064;-68
2022/02/01 10:26:17;;;;;;;15.33;8.90;;;;;;;3.04;100.00;99164.03;1686807;84;21062;-70
2022/02/01 10:34:26;;;;;;;45.60;20.67;;;;;;;2.58;100.00;99177.16;1682824;85;21050;-70
2022/02/01 10:36:39;;;;;;;29.47;14.10;;;;;;;2.52;100.00;99159.05;1692129;84;21002;-70
2022/02/01 10:39:25;;;;;;;63.30;27.90;;;;;;;2.46;100.00;99159.12;1705526;84;21463;-71
2022/02/01 10:42:09;;;;;;;43.77;20.67;;;;;;;2.36;100.00;99162.78;1701808;84;21202;-71
2022/02/01 10:44:42;;;;;;;21.47;11.80;;;;;;;2.33;100.00;99149.72;1673296;84;21613;-68
2022/02/01 10:47:15;;;;;;;21.07;10.13;;;;;;;2.35;100.00;99148.58;1695798;84;21022;-71
2022/02/01 10:49:45;;;;;;;19.93;10.70;;;;;;;2.42;100.00;99148.36;1682252;84;21100;-70
2022/02/01 10:52:14;;;;;;;27.83;15.63;;;;;;;2.51;100.00;99147.17;1707388;83;21003;-70
2022/02/01 10:54:43;;;;;;;18.87;8.80;;;;;;;2.51;100.00;99154.69;1706536;84;21034;-69
2022/02/01 10:57:11;;;;;;;18.33;8.30;;;;;;;2.57;100.00;99160.81;1701815;84;20995;-70
2022/02/01 10:59:39;;;;;;;18.83;8.23;;;;;;;2.56;100.00;99164.45;1702500;84;21083;-69
2022/02/01 11:02:06;;;;;;;15.80;6.70;;;;;;;2.61;100.00;99154.19;1675182;84;21078;-69
2022/02/01 11:04:36;;;;;;;17.70;8.27;;;;;;;2.62;100.00;99149.22;1699343;84;21030;-70
2022/02/01 11:07:04;;;;;;;33.67;18.60;;;;;;;2.67;100.00;99143.44;1683149;84;21687;-69
2022/02/01 11:09:34;;;;;;;25.10;12.80;;;;;;;2.67;100.00;99152.77;1682015;84;21538;-70
2022/02/01 11:12:07;;;;;;;30.93;17.57;;;;;;;2.63;100.00;99152.22;1705944;83;21072;-69
2022/02/01 11:14:43;;;;;;;18.87;8.90;;;;;;;2.62;100.00;99145.69;1637148;87;21516;-70
2022/02/01 11:17:18;;;;;;;18.10;8.20;;;;;;;2.66;100.00;99142.60;1625556;85;21102;-69
2022/02/01 11:19:57;;;;;;;17.60;7.83;;;;;;;2.66;100.00;99148.44;1652809;85;21542;-69
2022/02/01 11:22:30;;;;;;;15.50;7.37;;;;;;;2.67;100.00;99148.77;1674509;85;21054;-68
2022/02/01 11:24:59;;;;;;;18.50;9.03;;;;;;;2.66;100.00;99153.28;1677816;85;21525;-68
2022/02/01 11:27:40;;;;;;;16.00;7.77;;;;;;;2.63;100.00;99157.55;1675031;85;21026;-68
2022/02/01 11:30:13;;;;;;;20.97;10.97;;;;;;;2.66;100.00;99156.45;1577674;88;21128;-69
2022/02/01 11:32:54;;;;;;;23.57;14.30;;;;;;;2.65;100.00;99154.75;1587658;88;21045;-69
2022/02/01 11:35:24;;;;;;;17.93;9.87;;;;;;;2.63;100.00;99146.05;1603901;89;21106;-69
2022/02/01 11:38:02;;;;;;;19.73;10.47;;;;;;;2.59;100.00;99147.33;1551441;92;21126;-69
2022/02/01 11:40:46;;;;;;;19.93;9.27;;;;;;;2.51;100.00;99152.02;1572499;91;21102;-68
2022/02/01 11:43:16;;;;;;;18.03;8.47;;;;;;;2.57;100.00;99135.45;1565838;92;21592;-69
2022/02/01 11:46:00;;;;;;;17.00;9.10;;;;;;;2.57;100.00;99136.79;1563296;92;21144;-69
2022/02/01 11:48:31;;;;;;;;;;;;;;;2.61;100.00;99140.84;1549124;92;21098;-69
2022/02/01 11:51:01;;;;;;;15.83;7.80;;;;;;;2.64;100.00;99140.57;1541872;93;20203;-70
2022/02/01 11:53:41;;;;;;;18.60;8.80;;;;;;;2.68;100.00;99134.95;1550647;92;21130;-67
2022/02/01 11:56:11;;;;;;;27.67;15.13;;;;;;;2.71;100.00;99139.52;1539405;92;21112;-68
2022/02/01 11:58:46;;;;;;;21.87;10.87;;;;;;;2.64;100.00;99137.06;1542252;92;21642;-69
2022/02/01 12:01:35;;;;;;;21.23;12.00;;;;;;;2.60;100.00;99143.66;1494340;95;21199;-68
2022/02/01 12:04:09;;;;;;;18.60;8.27;;;;;;;2.59;100.00;99135.31;1503509;95;21130;-69
2022/02/01 12:06:46;;;;;;;16.47;7.27;;;;;;;2.71;100.00;99141.32;1463134;95;21146;-69
2022/02/01 12:11:46;;;;;;;19.90;8.23;;;;;;;2.81;100.00;99151.50;1523213;93;21071;-69
2022/02/01 12:14:13;;;;;;;18.37;8.40;;;;;;;2.83;100.00;99162.87;1516716;92;21141;-69
2022/02/01 12:16:50;;;;;;;24.43;13.33;;;;;;;2.83;100.00;99168.21;1560003;90;21121;-69
2022/02/01 12:19:36;;;;;;;21.60;10.93;;;;;;;2.86;100.00;99163.93;1537030;93;21624;-70
2022/02/01 12:22:28;;;;;;;23.23;10.97;;;;;;;2.98;100.00;99169.96;1518303;93;21130;-70
2022/02/01 12:25:04;;;;;;;21.37;8.77;;;;;;;3.10;100.00;99174.62;1535521;93;21147;-69
2022/02/01 12:27:38;;;;;;;23.47;12.13;;;;;;;2.96;100.00;99169.27;1519132;93;22103;-68
2022/02/01 12:30:09;;;;;;;19.30;9.03;;;;;;;2.82;100.00;99186.06;1543369;93;21139;-69
2022/02/01 12:32:36;;;;;;;29.57;14.20;;;;;;;2.76;100.00;99175.11;1521928;93;21083;-70
2022/02/01 12:35:04;;;;;;;22.70;10.17;;;;;;;2.72;100.00;99180.39;1511925;94;21154;-68
2022/02/01 12:37:33;;;;;;;24.20;11.00;;;;;;;2.71;100.00;99182.70;1471116;96;21085;-68
2022/02/01 12:40:09;;;;;;;28.97;13.30;;;;;;;2.65;100.00;99174.27;1470044;96;21101;-68
2022/02/01 12:42:43;;;;;;;30.08;14.85;;;;;;;2.61;100.00;99179.55;1496523;96;21609;-68
2022/02/01 12:48:00;;;;;;;42.13;22.67;;;;;;;2.46;100.00;99172.94;1525815;93;21184;-68
2022/02/01 12:50:27;;;;;;;28.73;16.20;;;;;;;2.31;100.00;99171.20;1508399;93;21105;-69
2022/02/01 12:53:00;;;;;;;21.20;9.90;;;;;;;2.21;100.00;99168.53;1507724;93;21139;-69
2022/02/01 12:55:28;;;;;;;22.90;11.35;;;;;;;2.17;100.00;99172.44;1534869;93;21101;-69
2022/02/01 12:57:55;;;;;;;23.97;12.17;;;;;;;2.21;100.00;99172.53;1538706;92;21092;-68
2022/02/01 13:00:25;;;;;;;24.33;11.47;;;;;;;2.31;100.00;99173.86;1566069;92;21669;-69
2022/02/01 13:03:03;;;;;;;56.97;33.83;;;;;;;2.42;100.00;99167.55;1595325;89;21052;-71
2022/02/01 13:05:32;;;;;;;23.20;11.50;;;;;;;2.45;100.00;99165.44;1449013;96;21120;-70
2022/02/01 13:16:21;;;;;;;30.08;17.27;;;;;;;2.45;100.00;99165.94;1551864;90;21619;-70
2022/02/01 13:21:18;;;;;;;25.07;12.77;;;;;;;2.41;100.00;99162.70;1537055;90;21650;-68
2022/02/01 13:23:56;;;;;;;46.73;29.50;;;;;;;2.38;100.00;99165.64;1579260;89;21079;-69
2022/02/01 13:26:32;;;;;;;26.77;14.57;;;;;;;2.34;100.00;99164.25;1590326;90;21110;-69